Fitzhugh, Oklahoma
Current Conditions -  °F | °C
As of 5:55 PM on Sunday 23 Nov 2014 (Local Time) from KADH Reporting Station
Overcast Overcast  
Wind Chill: 54°   Ceiling: 8500
Heat Index: 54°   Visibility: 10mi
Dew Point: 46°   Wind: 16mph
Humidity: 77%   Direction: 310°NW
Pressure: 29.48"   Gusts: 25mph
Location:  34.67°N, 96.78°W
Report Text: KADH 232355Z AUTO 31014G22KT 10SM SCT065 OVC085 12/08 A2948 RMK AO2
Loading
Personal Weather Stations






























Interactive Weather Map New forecast layout! Learn more

10-Day Weather Forecast

Advertisements
Track Severe Weather on mobile